Terminal Aerodrome Forecast
Issued by NWS Pocatello, ID

Home | Current Version | Previous Version | Text Only | Print | Product List | Glossary On
Versions: 1 2 3 4 5 6 7 8 9 10 11 12 13 14 15 16 17 18 19 20 21 22 23 24
000
FTUS45 KPIH 251129
TAFBYI
TAF
KBYI 251129Z 2512/2612 26022G32KT 6SM BLSN SCT015 BKN060
     FM251400 25015G25KT P6SM SCT020 BKN060
     FM251600 26020G30KT P6SM SCT025 BKN060
     FM260300 22012G22KT 3SM -SN BR BLSN BKN020 OVC030
     FM260500 22015G25KT 2SM -SN BLSN BKN015 OVC025=

USA.gov is the U.S. government's official web portal to all federal, state and local government web resources and services.